Lupton, Michigan
Current Conditions -  °F | °C
As of 10:33 AM on Monday 22 Dec 2014 (Local Time) from KOSC Reporting Station
Overcast Overcast  
Wind Chill: -4°   Ceiling: 2300
Heat Index:   Visibility: 10mi
Dew Point: -3°   Wind: 9mph
Humidity: 80%   Direction: 160°SSE
Pressure: 30.11"   Gusts: NA
Location:  44.43°N, 84.03°W
Report Text: KOSC 221533Z AUTO 16008KT 10SM OVC023 00/M02 A3011 RMK AO2 T00021029
Loading
Personal Weather Stations






























Interactive Weather Map New forecast layout! Learn more

10-Day Weather Forecast

Advertisements
Track Severe Weather on mobile